Wetterdaten: aktuell Samstag, 01.04.2023 11:53
Datum Zeit Temperatur Luftfeuchte Luftdruck Regen Wind Richtung Richtung Taupunkt Windchill Windben
01.04.2023 11:53 3,8 C 99 % 1005,1 hPa 0,0 l/m 5,9 km/h (2 Bft) NW 319 3,7 C 2,4 C 9,7 km/h (2 Bft)
01.04.2023 11:52 3,9 C 99 % 1005,1 hPa 0,0 l/m 4,2 km/h (1 Bft) SW 225 3,8 C 3,9 C 11,3 km/h (2 Bft)
01.04.2023 11:51 3,8 C 99 % 1005,2 hPa 0,0 l/m 4,5 km/h (1 Bft) O-SO 109 3,7 C 3,8 C 6,4 km/h (2 Bft)
01.04.2023 11:50 3,8 C 99 % 1005,1 hPa 0,0 l/m 4,8 km/h (1 Bft) S-SO 163 3,7 C 2,8 C 11,3 km/h (2 Bft)
01.04.2023 11:49 3,9 C 99 % 1005,1 hPa 0,0 l/m 4,3 km/h (1 Bft) S 169 3,8 C 3,9 C 8,0 km/h (2 Bft)
01.04.2023 11:48 3,8 C 99 % 1005,1 hPa 0,0 l/m 4,0 km/h (1 Bft) SW 222 3,7 C 3,8 C 8,0 km/h (2 Bft)
01.04.2023 11:47 3,8 C 99 % 1005,2 hPa 0,0 l/m 6,6 km/h (2 Bft) NO 47 3,7 C 2,1 C 11,3 km/h (2 Bft)
01.04.2023 11:46 3,8 C 99 % 1005,2 hPa 0,0 l/m 5,7 km/h (2 Bft) NO 55 3,7 C 2,5 C 8,0 km/h (2 Bft)
01.04.2023 11:45 3,8 C 99 % 1005,2 hPa 0,0 l/m 1,7 km/h (1 Bft) O-SO 114 3,7 C 3,8 C 6,4 km/h (2 Bft)
01.04.2023 11:44 3,8 C 99 % 1005,1 hPa 0,0 l/m 3,0 km/h (1 Bft) W-SW 243 3,7 C 3,8 C 6,4 km/h (2 Bft)
01.04.2023 11:43 3,8 C 99 % 1005,1 hPa 0,0 l/m 2,3 km/h (1 Bft) NW 318 3,7 C 3,8 C 4,8 km/h (1 Bft)
01.04.2023 11:42 3,8 C 99 % 1005,1 hPa 0,0 l/m 4,1 km/h (1 Bft) N-NO 13 3,7 C 3,8 C 9,7 km/h (2 Bft)
01.04.2023 11:41 3,8 C 99 % 1005,1 hPa 0,0 l/m 4,6 km/h (1 Bft) S-SW 200 3,7 C 2,9 C 8,0 km/h (2 Bft)
01.04.2023 11:40 3,8 C 99 % 1005,1 hPa 0,0 l/m 1,1 km/h (1 Bft) O-NO 71 3,7 C 3,8 C 3,2 km/h (1 Bft)
01.04.2023 11:39 3,8 C 99 % 1005,1 hPa 0,0 l/m 3,7 km/h (1 Bft) O-NO 74 3,7 C 3,8 C 4,8 km/h (1 Bft)
01.04.2023 11:38 3,8 C 99 % 1005,2 hPa 0,0 l/m 4,4 km/h (1 Bft) O-NO 71 3,7 C 3,8 C 6,4 km/h (2 Bft)
01.04.2023 11:37 3,8 C 99 % 1005,2 hPa 0,0 l/m 1,9 km/h (1 Bft) O-NO 57 3,7 C 3,8 C 4,8 km/h (1 Bft)
01.04.2023 11:36 3,8 C 99 % 1005,1 hPa 0,0 l/m 4,0 km/h (1 Bft) O 98 3,7 C 3,8 C 8,0 km/h (2 Bft)
01.04.2023 11:35 3,8 C 99 % 1005,2 hPa 0,0 l/m 3,5 km/h (1 Bft) O-NO 77 3,7 C 3,8 C 8,0 km/h (2 Bft)
01.04.2023 11:34 3,8 C 99 % 1005,2 hPa 0,0 l/m 3,4 km/h (1 Bft) SW 227 3,7 C 3,8 C 9,7 km/h (2 Bft)
01.04.2023 11:33 3,8 C 99 % 1005,2 hPa 0,0 l/m 3,7 km/h (1 Bft) N-NW 348 3,7 C 3,8 C 8,0 km/h (2 Bft)
01.04.2023 11:32 3,8 C 99 % 1005,1 hPa 0,0 l/m 4,0 km/h (1 Bft) O-NO 61 3,7 C 3,8 C 6,4 km/h (2 Bft)
01.04.2023 11:31 3,8 C 99 % 1005,2 hPa 0,0 l/m 3,8 km/h (1 Bft) NO 54 3,7 C 3,8 C 8,0 km/h (2 Bft)
01.04.2023 11:30 3,8 C 99 % 1005,2 hPa 0,0 l/m 1,9 km/h (1 Bft) O-NO 63 3,7 C 3,8 C 4,8 km/h (1 Bft)
01.04.2023 11:29 3,8 C 99 % 1005,2 hPa 0,0 l/m 6,6 km/h (2 Bft) W 261 3,7 C 2,1 C 11,3 km/h (2 Bft)
01.04.2023 11:28 3,8 C 99 % 1005,2 hPa 0,0 l/m 3,2 km/h (1 Bft) W-SW 238 3,7 C 3,8 C 12,9 km/h (3 Bft)
01.04.2023 11:27 3,7 C 99 % 1005,1 hPa 0,0 l/m 3,9 km/h (1 Bft) SW 229 3,6 C 3,7 C 8,0 km/h (2 Bft)
01.04.2023 11:26 3,7 C 99 % 1005,2 hPa 0,0 l/m 0,8 km/h (0 Bft) W-SW 252 3,6 C 3,7 C 3,2 km/h (1 Bft)
01.04.2023 11:25 3,7 C 99 % 1005,3 hPa 0,0 l/m 0,1 km/h (0 Bft) SO 141 3,6 C 3,7 C 1,6 km/h (1 Bft)
01.04.2023 11:24 3,7 C 99 % 1005,2 hPa 0,0 l/m 1,1 km/h (1 Bft) O-SO 114 3,6 C 3,7 C 3,2 km/h (1 Bft)
01.04.2023 11:23 3,7 C 99 % 1005,2 hPa 0,0 l/m 2,2 km/h (1 Bft) O-NO 75 3,6 C 3,7 C 4,8 km/h (1 Bft)
01.04.2023 11:22 3,7 C 99 % 1005,2 hPa 0,0 l/m 3,5 km/h (1 Bft) SO 140 3,6 C 3,7 C 6,4 km/h (2 Bft)
01.04.2023 11:21 3,7 C 99 % 1005,3 hPa 0,0 l/m 3,4 km/h (1 Bft) O-SO 111 3,6 C 3,7 C 6,4 km/h (2 Bft)
01.04.2023 11:20 3,6 C 99 % 1005,2 hPa 0,0 l/m 5,6 km/h (2 Bft) W-SW 242 3,5 C 2,3 C 9,7 km/h (2 Bft)
01.04.2023 11:19 3,6 C 99 % 1005,2 hPa 0,0 l/m 7,3 km/h (2 Bft) O-SO 106 3,5 C 1,7 C 14,5 km/h (3 Bft)
01.04.2023 11:18 3,6 C 99 % 1005,3 hPa 0,0 l/m 1,3 km/h (1 Bft) W 281 3,5 C 3,6 C 3,2 km/h (1 Bft)
01.04.2023 11:17 3,6 C 99 % 1005,2 hPa 0,0 l/m 2,9 km/h (1 Bft) S 178 3,5 C 3,6 C 4,8 km/h (1 Bft)
01.04.2023 11:16 3,6 C 99 % 1005,2 hPa 0,0 l/m 4,1 km/h (1 Bft) O-NO 63 3,5 C 3,6 C 8,0 km/h (2 Bft)
01.04.2023 11:15 3,6 C 99 % 1005,0 hPa 0,0 l/m 4,7 km/h (1 Bft) W-NW 300 3,5 C 2,6 C 11,3 km/h (2 Bft)
01.04.2023 11:14 3,6 C 99 % 1005,1 hPa 0,0 l/m 4,5 km/h (1 Bft) NO 45 3,5 C 3,6 C 6,4 km/h (2 Bft)
01.04.2023 11:13 3,6 C 99 % 1005,0 hPa 0,0 l/m 3,6 km/h (1 Bft) O 101 3,5 C 3,6 C 8,0 km/h (2 Bft)
01.04.2023 11:12 3,6 C 99 % 1005,1 hPa 0,0 l/m 6,2 km/h (2 Bft) O-NO 61 3,5 C 2,0 C 9,7 km/h (2 Bft)
01.04.2023 11:11 3,6 C 99 % 1005,1 hPa 0,0 l/m 4,2 km/h (1 Bft) O 86 3,5 C 3,6 C 6,4 km/h (2 Bft)
01.04.2023 11:10 3,6 C 99 % 1005,1 hPa 0,0 l/m 3,5 km/h (1 Bft) O 83 3,5 C 3,6 C 6,4 km/h (2 Bft)
01.04.2023 11:09 3,6 C 99 % 1005,0 hPa 0,0 l/m 3,4 km/h (1 Bft) N 360 3,5 C 3,6 C 6,4 km/h (2 Bft)
01.04.2023 11:08 3,6 C 99 % 1005,0 hPa 0,0 l/m 3,4 km/h (1 Bft) NW 306 3,5 C 3,6 C 4,8 km/h (1 Bft)
01.04.2023 11:07 3,6 C 99 % 1004,9 hPa 0,0 l/m 4,3 km/h (1 Bft) O-SO 110 3,5 C 3,6 C 9,7 km/h (2 Bft)
01.04.2023 11:06 3,5 C 99 % 1004,9 hPa 0,0 l/m 4,1 km/h (1 Bft) O-SO 122 3,4 C 3,5 C 6,4 km/h (2 Bft)
01.04.2023 11:05 3,5 C 99 % 1005,0 hPa 0,0 l/m 4,1 km/h (1 Bft) N 360 3,4 C 3,5 C 8,0 km/h (2 Bft)
01.04.2023 11:04 3,4 C 99 % 1005,1 hPa 0,0 l/m 2,9 km/h (1 Bft) SO 140 3,3 C 3,4 C 4,8 km/h (1 Bft)
01.04.2023 11:03 3,4 C 99 % 1004,9 hPa 0,0 l/m 4,2 km/h (1 Bft) O-SO 115 3,3 C 3,4 C 9,7 km/h (2 Bft)
01.04.2023 11:02 3,4 C 99 % 1005,2 hPa 0,0 l/m 5,4 km/h (2 Bft) O-SO 105 3,3 C 2,1 C 9,7 km/h (2 Bft)
01.04.2023 11:01 3,4 C 99 % 1005,0 hPa 0,0 l/m 6,0 km/h (2 Bft) O 82 3,3 C 1,9 C 11,3 km/h (2 Bft)
01.04.2023 11:00 3,4 C 99 % 1005,1 hPa 0,0 l/m 2,8 km/h (1 Bft) O 88 3,3 C 3,4 C 4,8 km/h (1 Bft)
01.04.2023 10:59 3,4 C 99 % 1005,1 hPa 0,0 l/m 3,2 km/h (1 Bft) NO 43 3,3 C 3,4 C 9,7 km/h (2 Bft)
01.04.2023 10:58 3,4 C 99 % 1005,0 hPa 0,0 l/m 4,5 km/h (1 Bft) O 98 3,3 C 3,4 C 6,4 km/h (2 Bft)
01.04.2023 10:57 3,4 C 99 % 1005,0 hPa 0,0 l/m 5,8 km/h (2 Bft) O-SO 119 3,3 C 2,0 C 14,5 km/h (3 Bft)
01.04.2023 10:56 3,4 C 99 % 1005,0 hPa 0,0 l/m 5,0 km/h (1 Bft) O 79 3,3 C 2,3 C 8,0 km/h (2 Bft)
01.04.2023 10:55 3,3 C 99 % 1005,0 hPa 0,0 l/m 4,6 km/h (1 Bft) O 83 3,2 C 2,3 C 4,8 km/h (1 Bft)
01.04.2023 10:54 3,3 C 99 % 1005,1 hPa 0,0 l/m 4,9 km/h (1 Bft) N-NO 33 3,2 C 2,2 C 8,0 km/h (2 Bft)
01.04.2023 10:53 3,3 C 99 % 1005,0 hPa 0,0 l/m 4,1 km/h (1 Bft) NW 325 3,2 C 3,3 C 6,4 km/h (2 Bft)
01.04.2023 10:52 3,3 C 99 % 1005,0 hPa 0,0 l/m 5,3 km/h (1 Bft) O 81 3,2 C 2,0 C 9,7 km/h (2 Bft)
01.04.2023 10:51 3,3 C 99 % 1005,0 hPa 0,0 l/m 6,4 km/h (2 Bft) W-SW 247 3,2 C 1,6 C 11,3 km/h (2 Bft)
01.04.2023 10:50 3,3 C 99 % 1005,0 hPa 0,0 l/m 6,4 km/h (2 Bft) NO 36 3,2 C 1,6 C 11,3 km/h (2 Bft)
01.04.2023 10:49 3,3 C 99 % 1005,0 hPa 0,0 l/m 5,0 km/h (1 Bft) S-SO 159 3,2 C 2,2 C 12,9 km/h (3 Bft)
01.04.2023 10:48 3,3 C 99 % 1005,0 hPa 0,2 l/m 5,4 km/h (2 Bft) N-NO 21 3,2 C 2,0 C 12,9 km/h (3 Bft)
01.04.2023 10:47 3,3 C 99 % 1005,0 hPa 0,0 l/m 2,8 km/h (1 Bft) N-NO 12 3,2 C 3,3 C 4,8 km/h (1 Bft)
01.04.2023 10:46 3,3 C 99 % 1004,9 hPa 0,0 l/m 2,4 km/h (1 Bft) SO 141 3,2 C 3,3 C 4,8 km/h (1 Bft)
01.04.2023 10:45 3,3 C 99 % 1005,0 hPa 0,0 l/m 3,6 km/h (1 Bft) NO 38 3,2 C 3,3 C 8,0 km/h (2 Bft)
01.04.2023 10:44 3,3 C 99 % 1004,9 hPa 0,0 l/m 2,4 km/h (1 Bft) S-SW 200 3,2 C 3,3 C 4,8 km/h (1 Bft)
01.04.2023 10:43 3,3 C 99 % 1005,0 hPa 0,0 l/m 4,7 km/h (1 Bft) O 101 3,2 C 2,3 C 6,4 km/h (2 Bft)
01.04.2023 10:42 3,3 C 99 % 1004,9 hPa 0,0 l/m 4,3 km/h (1 Bft) S-SW 201 3,2 C 3,3 C 8,0 km/h (2 Bft)
01.04.2023 10:41 3,3 C 99 % 1004,9 hPa 0,0 l/m 4,3 km/h (1 Bft) SW 236 3,2 C 3,3 C 8,0 km/h (2 Bft)
01.04.2023 10:40 3,3 C 99 % 1005,0 hPa 0,0 l/m 2,4 km/h (1 Bft) O-SO 123 3,2 C 3,3 C 6,4 km/h (2 Bft)
01.04.2023 10:39 3,2 C 99 % 1005,0 hPa 0,2 l/m 0,4 km/h (0 Bft) O-SO 103 3,1 C 3,2 C 1,6 km/h (1 Bft)
01.04.2023 10:35 3,2 C 99 % 1004,9 hPa 0,2 l/m 3,2 km/h (1 Bft) O-NO 67 3,1 C 3,2 C 9,7 km/h (2 Bft)
01.04.2023 10:30 3,2 C 99 % 1004,8 hPa 0,0 l/m 4,8 km/h (1 Bft) N-NO 22 3,1 C 2,1 C 14,5 km/h (3 Bft)
01.04.2023 10:25 3,2 C 99 % 1004,9 hPa 0,0 l/m 4,8 km/h (1 Bft) N 360 3,1 C 2,1 C 16,1 km/h (3 Bft)
01.04.2023 10:21 3,2 C 99 % 1004,8 hPa 0,0 l/m 4,8 km/h (1 Bft) S-SO 156 3,1 C 2,1 C 9,7 km/h (2 Bft)
01.04.2023 10:20 3,2 C 99 % 1004,9 hPa 0,0 l/m 5,3 km/h (1 Bft) N-NO 19 3,1 C 1,9 C 8,0 km/h (2 Bft)
01.04.2023 10:19 3,2 C 99 % 1004,9 hPa 0,0 l/m 3,0 km/h (1 Bft) S-SW 213 3,1 C 3,2 C 4,8 km/h (1 Bft)
01.04.2023 10:18 3,2 C 99 % 1004,9 hPa 0,0 l/m 4,7 km/h (1 Bft) W 274 3,1 C 2,2 C 8,0 km/h (2 Bft)
01.04.2023 10:17 3,2 C 99 % 1004,8 hPa 0,0 l/m 3,2 km/h (1 Bft) S 184 3,1 C 3,2 C 6,4 km/h (2 Bft)
01.04.2023 10:16 3,1 C 99 % 1004,9 hPa 0,0 l/m 5,2 km/h (1 Bft) W 270 3,0 C 1,8 C 12,9 km/h (3 Bft)
01.04.2023 10:15 3,2 C 99 % 1004,7 hPa 0,0 l/m 5,3 km/h (1 Bft) O 99 3,1 C 1,9 C 11,3 km/h (2 Bft)
01.04.2023 10:14 3,1 C 99 % 1004,9 hPa 0,0 l/m 5,9 km/h (2 Bft) S-SO 157 3,0 C 1,6 C 8,0 km/h (2 Bft)
01.04.2023 10:13 3,1 C 99 % 1004,8 hPa 0,0 l/m 4,8 km/h (1 Bft) O-NO 74 3,0 C 2,0 C 6,4 km/h (2 Bft)
01.04.2023 10:12 3,1 C 99 % 1004,8 hPa 0,0 l/m 6,8 km/h (2 Bft) N-NO 27 3,0 C 1,3 C 11,3 km/h (2 Bft)
01.04.2023 10:11 3,1 C 99 % 1004,8 hPa 0,0 l/m 4,0 km/h (1 Bft) SO 130 3,0 C 3,1 C 6,4 km/h (2 Bft)
01.04.2023 10:10 3,1 C 99 % 1004,9 hPa 0,0 l/m 6,0 km/h (2 Bft) NO 55 3,0 C 1,5 C 12,9 km/h (3 Bft)
01.04.2023 10:09 3,1 C 99 % 1004,8 hPa 0,0 l/m 7,0 km/h (2 Bft) N 355 3,0 C 1,2 C 11,3 km/h (2 Bft)
01.04.2023 10:08 3,1 C 99 % 1004,9 hPa 0,0 l/m 3,7 km/h (1 Bft) SO 136 3,0 C 3,1 C 4,8 km/h (1 Bft)
01.04.2023 10:07 3,1 C 99 % 1004,7 hPa 0,0 l/m 4,2 km/h (1 Bft) O-NO 66 3,0 C 3,1 C 8,0 km/h (2 Bft)
01.04.2023 10:06 3,1 C 99 % 1004,7 hPa 0,2 l/m 3,5 km/h (1 Bft) S-SO 153 3,0 C 3,1 C 6,4 km/h (2 Bft)
01.04.2023 10:05 3,1 C 99 % 1004,8 hPa 0,0 l/m 5,1 km/h (1 Bft) O 86 3,0 C 1,9 C 6,4 km/h (2 Bft)
01.04.2023 10:04 3,1 C 99 % 1005,0 hPa 0,0 l/m 3,8 km/h (1 Bft) O-NO 75 3,0 C 3,1 C 6,4 km/h (2 Bft)
01.04.2023 10:03 3,1 C 99 % 1004,9 hPa 0,0 l/m 5,7 km/h (2 Bft) O 83 3,0 C 1,6 C 6,4 km/h (2 Bft)
01.04.2023 10:02 3,1 C 99 % 1004,9 hPa 0,0 l/m 5,7 km/h (2 Bft) O-NO 65 3,0 C 1,6 C 9,7 km/h (2 Bft)
01.04.2023 10:01 3,1 C 99 % 1004,9 hPa 0,0 l/m 4,4 km/h (1 Bft) SO 140 3,0 C 3,1 C 9,7 km/h (2 Bft)
01.04.2023 10:00 3,1 C 99 % 1004,8 hPa 0,0 l/m 3,4 km/h (1 Bft) O-NO 69 3,0 C 3,1 C 6,4 km/h (2 Bft)
_ Min-Zeit 07:31 15:55 16:15 - 16:12 - - 07:31 09:58 16:12
Minimum _ 2,9 C 87 % 1001,5 hPa - 0,0 km/h (0 Bft) - - 2,8 C 0,0 C 0,0 km/h (0 Bft)
_ Max-Zeit 15:29 06:05 12:00 16:02 17:30 - - 15:29 15:29 15:56
Maximum _ 9,3 C 99 % 1006,1 hPa 9,8 l/m 16,2 km/h
S-SO (3 Bft)
- - 8,5 C 9,3 C 29,0 km/h
S-SW (5 Bft)
Durchschnitt _ 4,5 C 97 % 1003,7 hPa #18,0 l/m 5,2 km/h (1 Bft) O-SO - 4,1 C 3,5 C 10,1 km/h (2 Bft)
(C) Wetterstation Hinterwies